Time;durP1;ratioP1;P1;durP2;ratioP2;P2;SDS_P1;SDS_P2;PMS_P1;PMS_P2;Temp;Humidity;BMP_temperature;BMP_pressure;BME280_temperature;BME280_humidity;BME280_pressure;Samples;Min_cycle;Max_cycle;Signal;HPM_P1;HPM_P2
2023/10/04 00:00:49;;;;;;;6.22;3.70;;;;;;;12.67;80.96;99592.28;5029799;28;20021;-80
2023/10/04 00:03:15;;;;;;;9.27;3.30;;;;;;;12.76;80.90;99580.09;5012767;28;20516;-80
2023/10/04 00:05:41;;;;;;;8.55;3.47;;;;;;;12.79;80.62;99572.41;5006913;28;20022;-80
2023/10/04 00:08:07;;;;;;;7.15;3.20;;;;;;;12.93;80.08;99572.84;5029906;28;20120;-81
2023/10/04 00:10:33;;;;;;;7.13;3.85;;;;;;;12.81;80.02;99580.19;5026087;28;20099;-80
2023/10/04 00:12:59;;;;;;;7.90;3.67;;;;;;;12.98;80.00;99590.88;5023758;28;20024;-80
2023/10/04 00:15:27;;;;;;;7.65;3.40;;;;;;;12.86;79.88;99588.31;5025816;28;20120;-80
2023/10/04 00:17:53;;;;;;;6.43;3.40;;;;;;;12.97;80.02;99584.75;5027765;28;20441;-80
2023/10/04 00:20:19;;;;;;;5.85;3.45;;;;;;;13.03;79.49;99589.09;5008226;28;20076;-81
2023/10/04 00:22:46;;;;;;;6.15;3.45;;;;;;;13.00;79.35;99573.50;5023706;28;20038;-81
2023/10/04 00:25:23;;;;;;;8.32;3.28;;;;;;;13.03;79.69;99596.31;5000005;28;20056;-80
2023/10/04 00:27:56;;;;;;;4.80;3.10;;;;;;;12.89;79.73;99590.50;5028002;28;20040;-80
2023/10/04 00:30:26;;;;;;;6.43;3.28;;;;;;;12.97;79.60;99592.78;5025851;28;20033;-80
2023/10/04 00:32:53;;;;;;;8.07;4.07;;;;;;;12.89;79.42;99571.72;5024246;28;20030;-80
2023/10/04 00:35:19;;;;;;;3.78;3.00;;;;;;;12.89;79.43;99585.13;5006788;28;20036;-80
2023/10/04 00:38:00;;;;;;;7.10;3.92;;;;;;;12.78;79.73;99576.13;5026571;28;20036;-80
2023/10/04 00:40:30;;;;;;;6.72;3.80;;;;;;;12.97;79.36;99581.25;5022395;28;20041;-80
2023/10/04 00:42:59;;;;;;;8.70;3.38;;;;;;;12.76;79.46;99567.53;5012891;28;20041;-80
2023/10/04 00:45:28;;;;;;;7.03;3.53;;;;;;;12.73;79.40;99570.69;5013907;28;20078;-80
2023/10/04 00:47:58;;;;;;;12.18;4.13;;;;;;;12.84;79.47;99589.63;5025324;28;20076;-80
2023/10/04 00:50:26;;;;;;;7.53;4.05;;;;;;;12.84;79.68;99582.41;5025731;28;20393;-80
2023/10/04 00:53:14;;;;;;;5.47;3.60;;;;;;;12.82;79.73;99595.19;5004332;28;20044;-80
2023/10/04 00:55:42;;;;;;;6.30;4.15;;;;;;;12.62;80.22;99584.19;5027077;28;20021;-80
2023/10/04 00:58:10;;;;;;;8.05;3.75;;;;;;;12.74;80.04;99596.44;5026402;28;20478;-80
2023/10/04 01:00:38;;;;;;;8.18;3.65;;;;;;;12.62;80.17;99601.03;4992180;28;20120;-81
2023/10/04 01:03:05;;;;;;;7.13;3.55;;;;;;;12.61;80.01;99595.94;5016071;28;20041;-80
2023/10/04 01:05:32;;;;;;;8.82;3.50;;;;;;;12.71;80.03;99607.63;5027812;28;20109;-80
2023/10/04 01:07:59;;;;;;;7.78;2.90;;;;;;;12.59;80.21;99606.91;5021964;28;20032;-80
2023/10/04 01:10:30;;;;;;;6.90;3.70;;;;;;;12.71;79.95;99620.22;5025234;28;20083;-79
2023/10/04 01:12:55;;;;;;;7.30;3.72;;;;;;;12.52;80.04;99587.50;5009112;28;20056;-80
2023/10/04 01:15:30;;;;;;;10.90;4.43;;;;;;;12.62;79.92;99606.41;5027744;28;20110;-79
2023/10/04 01:18:00;;;;;;;7.72;3.75;;;;;;;12.68;80.30;99618.84;5027282;28;20029;-80
2023/10/04 01:20:33;;;;;;;7.82;4.40;;;;;;;12.62;80.31;99624.34;5027705;28;20029;-79
2023/10/04 01:23:01;;;;;;;12.23;4.32;;;;;;;12.70;80.09;99621.25;5022701;28;20022;-80
2023/10/04 01:25:28;;;;;;;6.22;3.67;;;;;;;12.52;80.19;99619.63;5019817;28;20025;-80
2023/10/04 01:27:54;;;;;;;6.75;4.03;;;;;;;12.61;80.33;99610.16;5007508;28;20037;-80
2023/10/04 01:30:19;;;;;;;8.45;3.83;;;;;;;12.46;80.46;99591.16;5025672;28;20044;-80
2023/10/04 01:32:45;;;;;;;6.97;3.88;;;;;;;12.60;80.19;99607.72;5028367;28;21855;-80
2023/10/04 01:35:12;;;;;;;6.55;4.15;;;;;;;12.66;79.74;99609.41;5028309;28;20061;-80
2023/10/04 01:37:39;;;;;;;7.65;3.67;;;;;;;12.64;79.83;99609.66;4992943;28;20398;-80
2023/10/04 01:40:12;;;;;;;10.13;4.20;;;;;;;12.65;80.05;99622.00;5014178;28;20029;-80
2023/10/04 01:42:40;;;;;;;7.88;3.63;;;;;;;12.52;80.21;99616.13;5023481;28;20030;-80
2023/10/04 01:45:11;;;;;;;7.15;3.80;;;;;;;12.44;80.56;99612.00;5009369;28;20490;-80
2023/10/04 01:47:37;;;;;;;7.97;4.68;;;;;;;12.58;79.97;99623.22;5028126;28;20025;-80
2023/10/04 01:50:05;;;;;;;11.10;4.18;;;;;;;12.45;80.14;99608.25;5029352;28;20032;-80
2023/10/04 01:52:30;;;;;;;6.22;4.22;;;;;;;12.53;79.93;99621.25;5025735;28;20038;-80
2023/10/04 01:54:56;;;;;;;8.23;4.05;;;;;;;12.49;80.24;99624.66;5026644;28;20044;-80
2023/10/04 01:57:21;;;;;;;9.13;4.55;;;;;;;12.55;79.94;99616.47;5026487;28;20033;-80
2023/10/04 01:59:46;;;;;;;8.20;4.68;;;;;;;12.40;80.35;99616.22;5026824;28;20052;-80
2023/10/04 02:02:14;;;;;;;8.57;3.97;;;;;;;12.37;80.28;99597.94;5008254;28;20175;-80
2023/10/04 02:04:40;;;;;;;10.73;4.38;;;;;;;12.52;80.00;99624.16;5026777;28;20029;-80
2023/10/04 02:07:05;;;;;;;6.72;3.97;;;;;;;12.37;80.07;99622.03;5004720;28;20038;-80
2023/10/04 02:09:30;;;;;;;10.93;4.90;;;;;;;12.24;80.39;99613.50;5021905;28;20040;-80
2023/10/04 02:11:56;;;;;;;6.40;3.80;;;;;;;12.34;80.17;99609.13;5005509;28;20041;-80
2023/10/04 02:14:21;;;;;;;8.93;4.40;;;;;;;12.27;80.67;99611.16;5009956;28;20409;-80
2023/10/04 02:16:46;;;;;;;8.18;4.18;;;;;;;12.39;80.30;99611.09;5030676;28;20060;-80
2023/10/04 02:19:12;;;;;;;7.70;4.10;;;;;;;12.39;80.48;99636.00;5007328;28;20037;-80
2023/10/04 02:21:37;;;;;;;7.80;4.32;;;;;;;12.37;80.26;99615.88;4998616;28;20033;-80
2023/10/04 02:24:04;;;;;;;5.70;4.25;;;;;;;12.32;79.92;99615.81;4993933;28;20026;-80
2023/10/04 02:26:31;;;;;;;9.93;4.90;;;;;;;12.28;79.90;99628.00;5026573;28;20175;-80
2023/10/04 02:28:57;;;;;;;12.07;5.55;;;;;;;12.22;80.45;99627.13;4995877;28;20445;-80
2023/10/04 02:31:22;;;;;;;11.02;3.97;;;;;;;12.31;80.60;99640.94;5027610;28;20167;-80
2023/10/04 02:33:50;;;;;;;7.70;4.13;;;;;;;12.36;80.54;99627.66;5030332;28;20017;-80
2023/10/04 02:36:15;;;;;;;5.75;4.00;;;;;;;12.35;80.17;99632.19;5025832;28;20025;-80
2023/10/04 02:38:41;;;;;;;7.97;5.00;;;;;;;12.28;80.21;99626.16;5011569;28;20041;-80
2023/10/04 02:41:06;;;;;;;8.27;4.55;;;;;;;12.20;80.59;99626.56;5013308;28;20044;-80
2023/10/04 02:43:32;;;;;;;11.95;4.85;;;;;;;12.26;80.12;99624.78;4991932;28;20038;-80
2023/10/04 02:45:59;;;;;;;13.38;5.75;;;;;;;12.08;80.45;99643.72;5013538;28;20177;-80
2023/10/04 02:48:25;;;;;;;11.60;4.22;;;;;;;12.17;80.69;99636.91;5026735;28;20026;-80
2023/10/04 02:50:50;;;;;;;10.45;5.03;;;;;;;12.30;80.08;99634.75;5016651;28;20393;-80
2023/10/04 02:53:17;;;;;;;10.00;5.10;;;;;;;12.19;80.60;99630.28;5024268;28;20034;-80
2023/10/04 02:55:43;;;;;;;7.68;4.13;;;;;;;12.16;80.25;99628.09;5012996;28;20033;-80
2023/10/04 02:58:10;;;;;;;9.27;4.70;;;;;;;12.22;80.52;99645.03;5025005;28;20026;-80
2023/10/04 03:00:45;;;;;;;9.27;4.75;;;;;;;12.18;80.30;99644.72;5030757;28;20036;-80
2023/10/04 03:03:21;;;;;;;8.10;4.05;;;;;;;12.19;80.33;99640.97;5025723;28;20028;-80
2023/10/04 03:05:47;;;;;;;12.27;5.28;;;;;;;12.01;80.68;99643.84;5026580;28;20022;-80
2023/10/04 03:08:12;;;;;;;7.60;4.63;;;;;;;12.10;80.95;99642.41;5008832;28;20041;-80
2023/10/04 03:10:38;;;;;;;9.27;5.57;;;;;;;11.87;81.01;99621.91;5026609;28;20033;-79
2023/10/04 03:13:22;;;;;;;9.65;4.55;;;;;;;12.14;80.85;99648.94;5024287;28;20382;-80
2023/10/04 03:15:48;;;;;;;7.65;4.65;;;;;;;11.84;81.46;99633.06;5009675;28;20129;-80
2023/10/04 03:18:13;;;;;;;7.75;4.03;;;;;;;11.90;81.36;99631.31;5012725;28;20117;-80
2023/10/04 03:23:32;;;;;;;11.70;4.68;;;;;;;11.91;81.14;99617.72;5030032;28;20048;-80
2023/10/04 03:26:00;;;;;;;7.47;4.53;;;;;;;11.96;80.94;99622.34;5027842;28;20033;-80
2023/10/04 03:28:26;;;;;;;7.00;4.18;;;;;;;12.01;80.96;99627.81;5025334;28;20112;-80
2023/10/04 03:30:56;;;;;;;11.43;5.95;;;;;;;11.96;81.26;99636.53;5011356;28;20029;-80
2023/10/04 03:33:21;;;;;;;14.50;5.90;;;;;;;11.51;82.05;99632.88;5025996;28;20481;-80
2023/10/04 03:35:48;;;;;;;11.70;4.53;;;;;;;11.80;82.12;99647.97;5032257;28;20022;-79
2023/10/04 03:38:14;;;;;;;11.35;4.68;;;;;;;11.69;81.57;99646.13;5030574;28;20021;-80
2023/10/04 03:40:39;;;;;;;9.65;4.60;;;;;;;11.68;82.36;99644.53;5027345;28;20489;-79
2023/10/04 03:43:08;;;;;;;14.98;5.25;;;;;;;11.58;82.35;99656.81;5021677;28;20080;-79
2023/10/04 03:45:35;;;;;;;10.35;4.47;;;;;;;11.71;82.58;99649.38;5007796;28;20033;-80
2023/10/04 03:48:01;;;;;;;12.13;4.80;;;;;;;11.89;81.95;99662.59;5029916;28;20029;-80
2023/10/04 03:50:28;;;;;;;15.00;6.20;;;;;;;11.79;82.13;99650.91;5031406;28;20444;-80
2023/10/04 03:52:57;;;;;;;12.02;4.82;;;;;;;12.04;80.95;99644.19;5029062;28;20487;-80
2023/10/04 03:55:27;;;;;;;6.80;4.63;;;;;;;12.01;81.53;99647.31;5025158;28;20029;-79
2023/10/04 03:57:54;;;;;;;14.10;4.53;;;;;;;11.96;81.82;99652.59;5025543;28;20022;-79
2023/10/04 04:00:22;;;;;;;12.15;5.25;;;;;;;12.08;81.26;99660.56;5026518;28;20033;-80
2023/10/04 04:02:51;;;;;;;6.80;3.97;;;;;;;12.04;81.71;99654.06;5029125;28;20041;-79
2023/10/04 04:05:21;;;;;;;11.80;5.28;;;;;;;12.04;81.48;99657.56;5029452;28;20052;-80
2023/10/04 04:07:51;;;;;;;10.10;4.93;;;;;;;12.04;81.70;99646.84;5019959;28;20138;-79
2023/10/04 04:10:18;;;;;;;10.55;4.75;;;;;;;12.00;81.76;99653.75;5026952;28;20541;-79
2023/10/04 04:12:46;;;;;;;10.35;4.28;;;;;;;12.01;81.58;99647.31;5024533;28;20029;-80
2023/10/04 04:15:15;;;;;;;7.20;5.60;;;;;;;12.10;81.63;99652.31;5008641;28;20025;-80
2023/10/04 04:17:41;;;;;;;9.40;4.43;;;;;;;12.07;81.31;99642.91;5025986;28;20406;-79
2023/10/04 04:20:14;;;;;;;9.48;4.93;;;;;;;12.04;81.39;99656.75;5033679;28;20021;-79
2023/10/04 04:22:53;;;;;;;12.70;5.10;;;;;;;11.86;81.78;99635.53;5028248;28;20120;-79
2023/10/04 04:25:19;;;;;;;8.35;5.10;;;;;;;12.07;81.48;99637.53;5028130;28;20037;-79
2023/10/04 04:27:46;;;;;;;10.07;5.18;;;;;;;12.01;81.63;99633.16;5027689;28;20033;-79
2023/10/04 04:30:19;;;;;;;12.55;5.57;;;;;;;11.70;82.59;99642.44;5029410;28;20037;-79
2023/10/04 04:32:52;;;;;;;13.27;5.20;;;;;;;12.07;81.71;99642.91;5023085;28;20074;-79
2023/10/04 04:35:23;;;;;;;8.23;4.82;;;;;;;11.99;81.69;99651.31;5025890;28;20523;-79
2023/10/04 04:37:54;;;;;;;15.18;6.00;;;;;;;11.76;82.82;99646.00;5023568;28;20025;-79
2023/10/04 04:40:25;;;;;;;21.48;6.03;;;;;;;12.14;81.53;99648.09;5022763;28;20029;-79
2023/10/04 04:42:51;;;;;;;13.07;5.00;;;;;;;11.89;82.02;99635.84;5031893;28;20484;-79
2023/10/04 04:45:16;;;;;;;10.80;5.47;;;;;;;12.02;81.34;99643.59;5027340;28;20030;-79
2023/10/04 04:47:44;;;;;;;15.00;6.78;;;;;;;12.10;81.68;99665.69;5020090;28;20029;-80
2023/10/04 04:50:10;;;;;;;15.13;5.65;;;;;;;11.98;81.33;99650.50;5027006;28;20026;-80
2023/10/04 04:52:36;;;;;;;12.95;5.82;;;;;;;12.21;81.31;99657.59;5002913;28;20025;-80
2023/10/04 04:55:02;;;;;;;10.93;5.72;;;;;;;11.99;81.30;99651.31;5023565;28;20041;-80
2023/10/04 04:57:30;;;;;;;12.98;6.13;;;;;;;12.03;82.10;99647.91;5016048;28;20190;-80
2023/10/04 04:59:56;;;;;;;13.60;6.60;;;;;;;11.89;82.14;99641.22;5025878;28;21055;-80
2023/10/04 05:02:25;;;;;;;13.25;5.82;;;;;;;11.84;81.90;99616.22;5025993;28;20038;-79
2023/10/04 05:04:51;;;;;;;8.13;5.45;;;;;;;12.03;81.76;99657.81;5029804;28;20089;-79
2023/10/04 05:07:17;;;;;;;14.48;6.60;;;;;;;11.96;81.57;99644.56;5030869;28;20037;-79
2023/10/04 05:09:43;;;;;;;13.60;6.32;;;;;;;11.73;82.80;99651.84;5028842;28;20113;-79
2023/10/04 05:12:08;;;;;;;12.57;6.00;;;;;;;12.07;82.12;99664.31;4991119;28;20139;-79
2023/10/04 05:14:35;;;;;;;15.38;6.50;;;;;;;12.11;82.21;99662.78;5032294;28;20044;-79
2023/10/04 05:17:01;;;;;;;12.93;6.45;;;;;;;11.89;81.40;99624.34;5030997;28;20053;-79
2023/10/04 05:19:26;;;;;;;11.82;6.38;;;;;;;12.04;81.43;99648.72;4998328;28;20052;-80
2023/10/04 05:21:52;;;;;;;10.05;5.63;;;;;;;12.04;82.14;99657.56;5014372;28;20033;-79
2023/10/04 05:24:17;;;;;;;11.68;6.15;;;;;;;11.96;81.89;99674.00;5005509;28;20040;-79
2023/10/04 05:26:42;;;;;;;14.30;6.72;;;;;;;12.00;81.42;99645.72;4997957;28;20053;-80
2023/10/04 05:29:08;;;;;;;15.50;7.05;;;;;;;11.97;81.96;99664.91;5014237;28;20040;-79
2023/10/04 05:31:33;;;;;;;14.18;6.95;;;;;;;12.07;81.83;99677.69;5014376;28;20158;-79
2023/10/04 05:33:59;;;;;;;9.82;6.07;;;;;;;12.03;81.82;99693.38;5013408;28;20022;-80
2023/10/04 05:36:24;;;;;;;12.85;6.57;;;;;;;11.94;82.33;99694.00;5029929;28;20525;-79
2023/10/04 05:38:50;;;;;;;16.15;8.20;;;;;;;11.98;82.23;99687.13;5028578;28;20502;-79
2023/10/04 05:41:15;;;;;;;16.10;6.55;;;;;;;11.96;82.19;99689.22;5025439;28;20444;-80
2023/10/04 05:43:41;;;;;;;14.93;8.20;;;;;;;11.93;82.27;99698.53;5010874;28;20034;-79
2023/10/04 05:46:06;;;;;;;12.63;6.53;;;;;;;12.11;81.69;99702.91;5029249;28;20029;-79
2023/10/04 05:48:34;;;;;;;11.02;6.55;;;;;;;12.03;82.62;99712.09;5015771;28;20041;-79
2023/10/04 05:51:00;;;;;;;13.90;6.95;;;;;;;11.87;82.49;99712.88;5026856;28;20117;-79
2023/10/04 05:53:26;;;;;;;12.82;7.55;;;;;;;11.65;83.53;99708.31;5014236;28;20558;-80
2023/10/04 05:55:52;;;;;;;12.98;8.43;;;;;;;11.70;83.05;99714.63;5011837;28;20105;-80
2023/10/04 05:58:18;;;;;;;15.75;8.30;;;;;;;11.75;83.28;99708.59;5010514;28;20069;-79
2023/10/04 06:00:51;;;;;;;14.77;7.82;;;;;;;11.87;82.87;99707.50;5011676;28;20737;-79
2023/10/04 06:03:17;;;;;;;15.23;7.95;;;;;;;12.03;82.16;99701.41;5026624;28;20060;-79
2023/10/04 06:05:42;;;;;;;10.45;7.07;;;;;;;11.97;82.09;99694.34;5030659;28;20485;-80
2023/10/04 06:08:18;;;;;;;10.30;6.97;;;;;;;11.83;82.75;99690.31;5027622;28;20036;-79
2023/10/04 06:10:44;;;;;;;10.75;7.15;;;;;;;12.04;82.28;99723.63;5013145;28;20030;-79
2023/10/04 06:13:13;;;;;;;16.13;7.78;;;;;;;11.87;82.10;99702.16;5027050;28;20428;-79
2023/10/04 06:15:49;;;;;;;10.40;7.07;;;;;;;11.96;82.14;99711.44;5011853;28;20034;-79
2023/10/04 06:18:19;;;;;;;;;;;;;;;11.95;82.75;99717.84;5004053;28;20029;-79
2023/10/04 06:20:45;;;;;;;15.70;6.97;;;;;;;11.87;82.59;99714.72;5029533;28;19920;-79
2023/10/04 06:23:14;;;;;;;19.02;7.05;;;;;;;11.98;82.31;99721.91;5028821;28;20072;-79
2023/10/04 06:25:42;;;;;;;15.93;8.10;;;;;;;12.09;81.85;99736.31;5010216;28;20075;-79
2023/10/04 06:28:09;;;;;;;14.13;7.72;;;;;;;11.96;82.24;99732.84;5013152;28;20041;-79
2023/10/04 06:30:36;;;;;;;15.68;7.40;;;;;;;11.94;82.53;99744.84;5011117;28;20084;-79
2023/10/04 06:33:04;;;;;;;12.23;7.65;;;;;;;11.99;82.23;99736.94;5018264;28;20533;-79
2023/10/04 06:35:30;;;;;;;12.68;7.28;;;;;;;11.99;82.36;99742.28;5029539;28;20076;-78
2023/10/04 06:38:00;;;;;;;13.75;7.32;;;;;;;11.74;83.38;99739.84;5030960;28;20037;-79
2023/10/04 06:40:28;;;;;;;16.33;7.82;;;;;;;11.99;82.51;99742.28;5030730;28;20104;-79
2023/10/04 06:42:57;;;;;;;15.07;7.78;;;;;;;11.63;83.12;99737.16;5012960;28;20477;-79
2023/10/04 06:45:26;;;;;;;13.60;7.13;;;;;;;11.74;83.64;99760.44;5012693;28;21367;-79
2023/10/04 06:47:53;;;;;;;14.43;7.80;;;;;;;11.81;83.24;99751.25;5021902;28;20478;-79
2023/10/04 06:50:20;;;;;;;15.40;8.27;;;;;;;11.89;83.04;99761.59;5030734;28;20036;-79
2023/10/04 06:52:50;;;;;;;16.80;9.05;;;;;;;11.67;83.91;99755.22;5029326;28;20052;-78
2023/10/04 06:55:18;;;;;;;15.07;7.10;;;;;;;11.68;84.02;99756.84;5029471;28;20061;-79
2023/10/04 06:57:44;;;;;;;13.10;7.22;;;;;;;11.85;83.77;99747.06;5030677;28;20038;-78
2023/10/04 07:00:15;;;;;;;15.20;8.98;;;;;;;11.77;83.57;99731.34;5032187;28;20029;-79
2023/10/04 07:02:53;;;;;;;13.15;7.55;;;;;;;12.09;83.25;99749.69;5020588;28;20034;-79
2023/10/04 07:05:28;;;;;;;16.73;9.60;;;;;;;11.77;83.61;99749.28;5032766;28;20048;-79
2023/10/04 07:07:56;;;;;;;14.18;8.55;;;;;;;11.91;84.10;99747.97;5013090;28;20125;-79
2023/10/04 07:10:24;;;;;;;16.67;8.68;;;;;;;11.93;83.86;99759.25;5005104;28;20412;-79
2023/10/04 07:12:56;;;;;;;15.70;9.13;;;;;;;11.66;85.15;99748.22;5015798;28;20053;-79
2023/10/04 07:15:38;;;;;;;15.93;7.93;;;;;;;12.09;83.75;99755.03;5031758;28;20033;-79
2023/10/04 07:18:07;;;;;;;15.70;7.40;;;;;;;12.15;83.39;99762.13;5032415;28;20413;-79
2023/10/04 07:20:33;;;;;;;15.82;8.05;;;;;;;12.20;83.22;99765.72;5025352;28;20427;-78
2023/10/04 07:22:59;;;;;;;15.48;8.98;;;;;;;12.04;84.06;99759.25;5014726;28;20048;-78
2023/10/04 07:25:25;;;;;;;15.10;7.88;;;;;;;12.35;83.17;99781.28;5006717;28;20037;-79
2023/10/04 07:27:51;;;;;;;12.27;7.28;;;;;;;12.21;83.43;99766.56;5031930;28;20029;-78
2023/10/04 07:30:19;;;;;;;16.67;7.68;;;;;;;12.23;83.42;99789.31;5033360;28;20492;-79
2023/10/04 07:32:46;;;;;;;15.82;8.65;;;;;;;12.31;83.77;99788.16;5031659;28;20416;-79
2023/10/04 07:35:16;;;;;;;17.02;8.98;;;;;;;12.45;82.66;99784.97;5032412;28;20107;-78
2023/10/04 07:37:42;;;;;;;16.38;7.78;;;;;;;12.44;83.06;99775.31;5028768;28;20029;-78
2023/10/04 07:40:09;;;;;;;12.18;8.18;;;;;;;12.43;83.12;99791.59;5015705;28;20030;-78
2023/10/04 07:42:38;;;;;;;17.00;8.15;;;;;;;12.42;82.97;99790.81;5031768;28;20091;-79
2023/10/04 07:45:08;;;;;;;19.98;9.00;;;;;;;12.41;83.27;99789.19;5033566;28;20100;-78
2023/10/04 07:47:37;;;;;;;15.20;8.48;;;;;;;12.53;83.08;99791.84;5032248;28;20091;-78
2023/10/04 07:50:05;;;;;;;15.25;7.82;;;;;;;12.61;82.63;99810.19;5014426;28;20034;-78
2023/10/04 07:52:31;;;;;;;17.73;8.93;;;;;;;12.55;82.80;99801.25;5032986;28;20026;-79
2023/10/04 07:54:59;;;;;;;14.77;8.60;;;;;;;12.60;82.68;99812.03;5033110;28;20032;-79
2023/10/04 07:57:26;;;;;;;14.65;8.85;;;;;;;12.56;82.63;99796.69;5025746;28;20038;-79
2023/10/04 07:59:51;;;;;;;17.27;8.88;;;;;;;12.36;84.19;99802.44;5022572;28;20112;-78
2023/10/04 08:02:17;;;;;;;14.63;8.43;;;;;;;12.74;82.65;99815.28;5031658;28;20116;-78
2023/10/04 08:04:45;;;;;;;14.07;9.30;;;;;;;12.67;83.00;99818.09;5031705;28;20029;-78
2023/10/04 08:07:12;;;;;;;13.95;8.88;;;;;;;12.68;82.96;99838.47;5015385;28;20061;-78
2023/10/04 08:09:38;;;;;;;15.73;9.77;;;;;;;12.66;82.74;99826.38;5013703;28;20503;-78
2023/10/04 08:12:07;;;;;;;16.23;8.80;;;;;;;12.75;82.26;99836.47;5019939;28;20632;-79
2023/10/04 08:14:32;;;;;;;18.40;9.40;;;;;;;12.77;82.57;99841.59;5032111;28;20045;-79
2023/10/04 08:16:58;;;;;;;19.13;10.07;;;;;;;12.72;82.96;99834.28;5022875;28;20067;-78
2023/10/04 08:19:24;;;;;;;17.65;9.13;;;;;;;12.75;82.80;99836.47;5014989;28;20065;-78
2023/10/04 08:21:49;;;;;;;13.63;8.38;;;;;;;12.89;82.50;99839.66;5031172;28;20596;-79
2023/10/04 08:24:15;;;;;;;12.93;9.48;;;;;;;12.89;82.07;99838.88;5014676;28;20389;-78
2023/10/04 08:26:41;;;;;;;16.20;9.75;;;;;;;12.93;82.08;99835.47;5031452;28;20079;-78
2023/10/04 08:29:07;;;;;;;18.95;9.43;;;;;;;12.88;82.31;99842.59;5024636;28;20438;-78
2023/10/04 08:31:33;;;;;;;16.02;8.93;;;;;;;12.90;82.12;99830.59;5020159;28;20056;-79
2023/10/04 08:33:59;;;;;;;16.98;8.95;;;;;;;12.84;82.63;99826.19;5030637;28;20037;-78
2023/10/04 08:36:24;;;;;;;18.95;8.93;;;;;;;12.99;81.52;99826.47;5031212;28;20520;-79
2023/10/04 08:38:49;;;;;;;11.93;7.90;;;;;;;12.97;82.33;99842.00;4998264;28;20103;-78
2023/10/04 08:41:16;;;;;;;14.40;9.90;;;;;;;13.03;82.22;99830.31;5019771;28;20025;-78
2023/10/04 08:43:43;;;;;;;16.58;8.98;;;;;;;12.98;82.28;99832.06;5026691;28;20493;-78
2023/10/04 08:46:10;;;;;;;19.80;9.32;;;;;;;12.85;83.13;99829.66;5022636;28;20034;-78
2023/10/04 08:48:35;;;;;;;18.95;9.30;;;;;;;13.05;82.17;99836.28;5010675;28;20060;-78
2023/10/04 08:51:13;;;;;;;15.38;8.48;;;;;;;13.14;82.42;99845.56;5025266;28;20042;-78
2023/10/04 08:53:56;;;;;;;13.50;8.68;;;;;;;13.18;81.84;99841.34;5027498;28;20401;-78
2023/10/04 08:56:24;;;;;;;13.95;7.88;;;;;;;13.25;81.81;99839.31;5032047;28;20096;-78
2023/10/04 08:58:50;;;;;;;14.27;8.35;;;;;;;13.21;81.78;99822.09;5030883;28;20041;-78
2023/10/04 09:01:19;;;;;;;13.48;7.70;;;;;;;13.24;82.10;99832.31;5004766;28;20120;-79
2023/10/04 09:03:46;;;;;;;14.13;8.23;;;;;;;13.15;82.49;99841.81;5027873;28;20034;-78
2023/10/04 09:06:14;;;;;;;19.55;9.05;;;;;;;13.07;83.18;99831.47;5028217;28;20026;-78
2023/10/04 09:08:41;;;;;;;18.70;9.13;;;;;;;13.19;82.15;99834.91;5020509;28;20030;-78
2023/10/04 09:11:15;;;;;;;16.83;8.73;;;;;;;13.22;81.89;99833.63;5026539;28;20036;-78
2023/10/04 09:13:59;;;;;;;15.50;8.20;;;;;;;13.16;82.55;99819.31;5023867;28;20581;-78
2023/10/04 09:16:28;;;;;;;18.48;8.85;;;;;;;13.16;82.26;99807.78;5028368;28;20108;-78
2023/10/04 09:19:06;;;;;;;13.80;8.50;;;;;;;13.37;81.80;99832.00;5020373;28;20477;-78
2023/10/04 09:21:33;;;;;;;13.70;7.20;;;;;;;13.25;82.00;99815.19;5022816;28;20040;-78
2023/10/04 09:24:10;;;;;;;20.05;8.43;;;;;;;13.38;81.61;99822.09;5031147;28;20061;-78
2023/10/04 09:26:57;;;;;;;17.38;9.40;;;;;;;13.32;81.61;99829.22;5030295;28;20033;-78
2023/10/04 09:29:30;;;;;;;17.83;8.77;;;;;;;13.43;81.75;99836.41;5024283;28;20034;-79
2023/10/04 09:31:56;;;;;;;15.82;9.55;;;;;;;13.42;81.59;99834.78;5021799;28;20116;-79
2023/10/04 09:34:25;;;;;;;19.02;8.95;;;;;;;13.39;81.57;99827.22;5025587;28;20116;-78
2023/10/04 09:36:54;;;;;;;16.23;8.93;;;;;;;13.42;81.40;99840.16;5011357;28;20084;-79
2023/10/04 09:39:24;;;;;;;15.63;8.60;;;;;;;13.38;81.53;99841.69;5021034;28;20072;-78
2023/10/04 09:41:51;;;;;;;15.75;7.97;;;;;;;13.43;81.10;99819.53;5022533;28;20030;-79
2023/10/04 09:44:27;;;;;;;16.13;8.30;;;;;;;13.60;80.78;99835.59;5007988;28;20424;-79
2023/10/04 09:46:56;;;;;;;16.67;8.43;;;;;;;13.52;81.86;99826.09;5020356;28;20034;-78
2023/10/04 09:49:26;;;;;;;15.07;8.35;;;;;;;13.56;81.10;99827.25;5025605;28;20030;-79
2023/10/04 09:51:55;;;;;;;17.55;7.88;;;;;;;13.68;80.48;99816.41;5021564;28;20037;-79
2023/10/04 09:54:24;;;;;;;14.20;8.05;;;;;;;13.75;80.43;99827.81;5030502;28;20036;-79
2023/10/04 09:56:52;;;;;;;11.57;7.43;;;;;;;13.73;80.69;99811.97;5028081;28;20034;-79
2023/10/04 09:59:20;;;;;;;17.30;7.47;;;;;;;13.96;79.63;99832.41;4990694;28;20461;-79
2023/10/04 10:01:56;;;;;;;14.20;8.45;;;;;;;13.95;79.93;99823.56;5018938;28;20045;-79
2023/10/04 10:04:25;;;;;;;16.00;8.02;;;;;;;13.98;81.04;99825.75;5024786;28;20428;-79
2023/10/04 10:07:16;;;;;;;16.25;6.97;;;;;;;14.03;80.34;99828.50;5017593;28;20095;-79
2023/10/04 10:09:59;;;;;;;11.85;6.90;;;;;;;14.03;80.13;99835.75;5020651;28;20029;-79
2023/10/04 10:12:31;;;;;;;14.90;8.95;;;;;;;14.08;79.45;99839.31;5025188;28;20667;-79
2023/10/04 10:15:00;;;;;;;12.63;7.70;;;;;;;14.03;79.65;99833.88;5029001;28;20159;-79
2023/10/04 10:17:27;;;;;;;13.95;7.93;;;;;;;14.09;79.67;99829.38;5028967;28;20036;-79
2023/10/04 10:19:54;;;;;;;11.13;7.40;;;;;;;13.95;79.51;99812.00;5044055;28;20033;-79
2023/10/04 10:22:20;;;;;;;16.63;9.40;;;;;;;13.92;79.94;99824.03;5028756;28;20049;-79
2023/10/04 10:24:56;;;;;;;13.55;7.68;;;;;;;14.03;79.91;99827.69;5029592;28;20029;-79
2023/10/04 10:27:27;;;;;;;12.57;7.30;;;;;;;14.00;79.80;99822.81;5028058;28;20083;-79
2023/10/04 10:29:52;;;;;;;11.85;7.85;;;;;;;14.01;79.90;99827.94;5016392;28;20021;-79
2023/10/04 10:32:23;;;;;;;14.95;7.90;;;;;;;13.93;79.87;99823.00;5023156;28;20028;-79
2023/10/04 10:34:51;;;;;;;18.95;7.57;;;;;;;13.91;80.07;99817.03;5030373;28;20029;-79
2023/10/04 10:37:18;;;;;;;12.52;7.07;;;;;;;14.09;79.49;99840.13;5028940;28;20025;-79
2023/10/04 10:39:51;;;;;;;10.45;6.00;;;;;;;14.05;79.68;99836.31;5032350;28;20021;-79
2023/10/04 10:42:18;;;;;;;11.23;5.72;;;;;;;14.00;79.15;99828.19;5027752;28;20115;-79
2023/10/04 10:44:43;;;;;;;15.23;7.63;;;;;;;14.13;78.03;99833.22;5032457;28;20037;-79
2023/10/04 10:47:14;;;;;;;11.90;7.13;;;;;;;14.27;77.42;99824.56;5032060;28;20047;-79
2023/10/04 10:49:50;;;;;;;10.23;5.53;;;;;;;14.40;77.05;99825.25;5031523;28;20160;-79
2023/10/04 10:52:30;;;;;;;12.70;6.25;;;;;;;14.43;77.25;99822.09;5032650;28;20079;-79
2023/10/04 10:54:58;;;;;;;15.25;6.28;;;;;;;14.47;76.83;99821.34;5034384;28;20061;-79
2023/10/04 10:57:27;;;;;;;10.82;4.93;;;;;;;14.52;76.07;99824.09;5032590;28;20045;-79
2023/10/04 10:59:54;;;;;;;12.57;5.40;;;;;;;14.57;74.99;99809.91;5024753;28;20029;-79
2023/10/04 11:02:21;;;;;;;9.73;5.30;;;;;;;14.80;73.96;99821.22;5016168;28;20032;-79
2023/10/04 11:04:47;;;;;;;9.60;4.80;;;;;;;14.76;73.86;99813.91;5009478;28;20037;-79
2023/10/04 11:07:12;;;;;;;10.43;5.38;;;;;;;14.93;73.32;99826.19;5031267;28;20094;-79
2023/10/04 11:09:39;;;;;;;8.88;5.32;;;;;;;15.04;72.95;99810.97;5030732;28;20036;-79
2023/10/04 11:12:09;;;;;;;9.25;5.47;;;;;;;15.08;72.59;99811.25;5023420;28;20489;-79
2023/10/04 11:14:36;;;;;;;9.80;4.57;;;;;;;15.29;72.30;99821.19;5024915;28;20036;-79
2023/10/04 11:17:04;;;;;;;11.15;5.15;;;;;;;15.35;72.63;99809.38;5034030;28;20045;-79
2023/10/04 11:19:31;;;;;;;12.45;5.20;;;;;;;15.38;72.32;99811.53;5033874;28;20038;-79
2023/10/04 11:21:57;;;;;;;13.32;4.72;;;;;;;15.48;70.97;99806.31;5015026;28;20382;-79
2023/10/04 11:24:23;;;;;;;8.20;4.35;;;;;;;15.32;70.52;99791.06;5018502;28;20279;-79
2023/10/04 11:26:48;;;;;;;12.30;4.75;;;;;;;15.48;70.07;99798.22;5029352;28;20632;-79
2023/10/04 11:29:14;;;;;;;6.28;4.05;;;;;;;15.60;68.55;99813.13;5026088;28;20038;-79
2023/10/04 11:31:40;;;;;;;9.85;4.35;;;;;;;15.48;69.16;99804.44;5026773;28;20039;-79
2023/10/04 11:34:06;;;;;;;11.55;4.72;;;;;;;15.61;69.06;99813.94;5031935;28;20048;-79
2023/10/04 11:36:35;;;;;;;7.90;4.60;;;;;;;15.73;68.79;99807.31;5031257;28;20029;-79